Belmore, Ohio
Current Conditions -  °F | °C
As of 4:53 PM on Wednesday 26 Nov 2014 (Local Time) from KFDY Reporting Station
Overcast Overcast  
Wind Chill: -1°   Ceiling: 1800
Heat Index:   Visibility: 10mi
Dew Point: -3°   Wind: 5mph
Humidity: 73%   Direction: 330°NNW
Pressure: 30.07"   Gusts: NA
Location:  41.15°N, 83.94°W
Report Text: KFDY 262153Z AUTO 33004KT 10SM BKN018 OVC027 01/M03 A3007 RMK AO2 SLP187 T00111033
Loading
Personal Weather Stations






























Interactive Weather Map New forecast layout! Learn more

10-Day Weather Forecast

Advertisements
Track Severe Weather on mobile